Time;durP1;ratioP1;P1;durP2;ratioP2;P2;SDS_P1;SDS_P2;PMS_P1;PMS_P2;Temp;Humidity;BMP_temperature;BMP_pressure;BME280_temperature;BME280_humidity;BME280_pressure;Samples;Min_cycle;Max_cycle;Signal;HPM_P1;HPM_P2
2022/11/07 00:00:30;;;;;;;17.52;8.77;;;;;;;1.82;64.91;100740.84;6041985;23;20147;-82
2022/11/07 00:02:57;;;;;;;20.95;9.13;;;;;;;1.96;65.13;100765.38;6021517;23;20023;-82
2022/11/07 00:05:23;;;;;;;18.17;8.95;;;;;;;1.44;65.39;100677.69;6021155;23;20015;-82
2022/11/07 00:07:49;;;;;;;19.88;8.65;;;;;;;1.98;65.70;100757.78;6017791;23;20083;-82
2022/11/07 00:10:23;;;;;;;18.90;9.65;;;;;;;1.85;65.90;100731.56;6062424;23;20023;-81
2022/11/07 00:12:50;;;;;;;19.60;9.25;;;;;;;1.89;65.44;100740.25;6037628;23;20019;-80
2022/11/07 00:15:16;;;;;;;25.48;9.77;;;;;;;1.87;65.74;100726.53;6064541;23;20019;-83
2022/11/07 00:17:42;;;;;;;21.13;9.68;;;;;;;1.96;65.98;100742.28;6064496;23;20026;-83
2022/11/07 00:20:08;;;;;;;17.00;9.07;;;;;;;1.85;66.40;100723.00;6065119;23;20007;-81
2022/11/07 00:22:35;;;;;;;21.42;9.80;;;;;;;2.06;65.73;100752.13;6064564;23;20014;-81
2022/11/07 00:25:29;;;;;;;17.40;8.82;;;;;;;2.19;66.08;100775.72;6060765;23;20016;-81
2022/11/07 00:27:55;;;;;;;19.77;9.10;;;;;;;2.00;65.85;100741.59;6056351;23;20019;-82
2022/11/07 00:30:21;;;;;;;21.90;9.25;;;;;;;1.75;66.17;100709.78;6064028;23;20024;-83
2022/11/07 00:32:47;;;;;;;20.60;9.48;;;;;;;2.16;66.28;100778.16;6041614;23;20034;-80
2022/11/07 00:35:13;;;;;;;18.13;9.65;;;;;;;1.95;66.44;100741.44;6063872;23;19999;-82
2022/11/07 00:37:39;;;;;;;19.75;9.32;;;;;;;2.00;66.37;100744.16;6060983;23;20023;-82
2022/11/07 00:40:06;;;;;;;18.85;9.80;;;;;;;2.22;67.03;100778.44;6064320;23;20354;-81
2022/11/07 00:42:32;;;;;;;18.60;9.20;;;;;;;2.26;66.63;100768.34;6017968;23;20015;-82
2022/11/07 00:45:00;;;;;;;17.92;9.50;;;;;;;1.72;66.76;100673.72;6063741;23;20003;-81
2022/11/07 00:47:26;;;;;;;19.13;9.38;;;;;;;2.07;67.10;100733.34;6039652;23;20007;-80
2022/11/07 00:49:52;;;;;;;19.27;9.70;;;;;;;2.34;67.12;100766.06;6036584;23;20019;-82
2022/11/07 00:52:19;;;;;;;18.10;9.70;;;;;;;1.56;67.11;100618.31;6033040;23;20027;-81
2022/11/07 00:54:45;;;;;;;21.20;9.95;;;;;;;2.44;66.82;100754.47;6055716;23;20066;-82
2022/11/07 00:57:12;;;;;;;21.27;10.10;;;;;;;2.20;66.98;100728.69;6030811;23;20042;-81
2022/11/07 00:59:38;;;;;;;20.00;10.20;;;;;;;2.34;66.99;100739.53;6020780;23;20078;-80
2022/11/07 01:02:04;;;;;;;20.48;10.50;;;;;;;2.30;67.04;100738.53;6044085;23;20019;-81
2022/11/07 01:07:15;;;;;;;19.90;9.85;;;;;;;2.15;67.09;100707.06;6040138;23;20031;-82
2022/11/07 01:09:41;;;;;;;21.27;10.55;;;;;;;1.98;67.18;100696.16;6016422;23;20030;-82
2022/11/07 01:12:07;;;;;;;20.58;10.18;;;;;;;1.75;67.31;100630.22;6069872;23;20078;-83
2022/11/07 01:14:37;;;;;;;21.80;10.43;;;;;;;1.89;67.54;100637.59;6075106;23;20026;-81
2022/11/07 01:17:03;;;;;;;22.63;11.23;;;;;;;2.34;67.28;100704.41;6044335;23;20460;-82
2022/11/07 01:19:30;;;;;;;23.30;11.05;;;;;;;2.48;67.56;100722.09;6070481;23;20295;-82
2022/11/07 01:21:56;;;;;;;23.20;10.93;;;;;;;2.30;67.68;100689.72;6020321;23;20027;-80
2022/11/07 01:24:22;;;;;;;22.90;10.30;;;;;;;2.56;67.34;100707.81;6044257;23;20434;-82
2022/11/07 01:26:48;;;;;;;23.00;10.82;;;;;;;2.43;67.17;100682.47;6070226;23;20026;-81
2022/11/07 01:29:15;;;;;;;22.80;11.23;;;;;;;2.61;67.10;100711.44;6045021;23;20078;-83
2022/11/07 01:31:42;;;;;;;23.83;10.77;;;;;;;2.79;67.64;100718.09;6022423;23;20077;-80
2022/11/07 01:34:08;;;;;;;19.88;10.65;;;;;;;2.65;67.06;100682.47;6070634;23;20022;-82
2022/11/07 01:36:34;;;;;;;24.63;11.63;;;;;;;2.85;67.57;100710.63;6021257;23;20026;-83
2022/11/07 01:39:01;;;;;;;20.75;10.07;;;;;;;2.65;67.25;100671.34;6020099;23;20099;-82
2022/11/07 01:41:30;;;;;;;20.52;10.35;;;;;;;2.75;66.92;100693.13;6044856;23;20471;-81
2022/11/07 01:44:02;;;;;;;19.90;9.95;;;;;;;2.84;67.75;100709.75;6025803;23;20026;-81
2022/11/07 01:46:33;;;;;;;22.58;11.27;;;;;;;2.43;67.46;100641.38;6077496;23;20051;-82
2022/11/07 01:49:27;;;;;;;23.13;10.95;;;;;;;2.31;67.05;100634.06;6049947;23;20018;-84
2022/11/07 01:52:19;;;;;;;22.77;9.82;;;;;;;2.79;67.49;100710.38;6044840;23;20118;-84
2022/11/07 01:55:04;;;;;;;21.63;10.30;;;;;;;2.71;67.40;100700.72;6012380;23;20046;-82
2022/11/07 01:57:52;;;;;;;19.40;10.30;;;;;;;2.50;67.39;100679.34;6044165;23;20101;-82
2022/11/07 02:00:22;;;;;;;21.85;10.85;;;;;;;2.77;67.59;100712.91;6020048;23;20018;-82
2022/11/07 02:02:54;;;;;;;20.73;10.23;;;;;;;2.81;68.06;100711.31;6069218;23;20014;-82
2022/11/07 02:05:28;;;;;;;19.85;10.50;;;;;;;2.24;67.07;100610.72;6069893;23;20018;-81
2022/11/07 02:07:55;;;;;;;22.83;10.88;;;;;;;1.78;67.23;100553.34;6068860;23;20014;-82
2022/11/07 02:10:23;;;;;;;20.60;10.88;;;;;;;2.47;67.15;100656.09;6084106;23;20020;-83
2022/11/07 02:12:50;;;;;;;19.85;10.73;;;;;;;2.50;67.67;100664.78;6044395;23;20030;-81
2022/11/07 02:15:36;;;;;;;23.60;11.07;;;;;;;2.67;68.24;100711.69;6048938;23;20014;-80
2022/11/07 02:18:03;;;;;;;24.40;10.68;;;;;;;2.63;67.43;100686.69;6068652;23;20105;-82
2022/11/07 02:20:30;;;;;;;24.95;11.32;;;;;;;2.43;67.55;100655.09;6048641;23;20018;-83
2022/11/07 02:23:02;;;;;;;21.75;10.80;;;;;;;2.57;67.89;100691.59;6035183;23;20027;-82
2022/11/07 02:25:31;;;;;;;22.88;11.30;;;;;;;2.32;67.75;100648.69;6060388;23;20101;-81
2022/11/07 02:28:00;;;;;;;23.67;11.18;;;;;;;2.53;67.89;100684.59;6082359;23;20023;-81
2022/11/07 02:30:33;;;;;;;20.05;10.60;;;;;;;2.19;68.21;100635.38;6056393;23;20023;-81
2022/11/07 02:33:00;;;;;;;25.98;11.93;;;;;;;2.40;67.52;100665.28;6056470;23;20030;-80
2022/11/07 02:35:42;;;;;;;29.02;12.80;;;;;;;2.40;68.15;100653.28;6082418;23;20019;-82
2022/11/07 02:38:35;;;;;;;23.38;11.15;;;;;;;2.66;68.31;100684.22;6082661;23;20074;-81
2022/11/07 02:41:09;;;;;;;22.50;10.93;;;;;;;2.59;68.67;100656.53;6066266;23;20023;-81
2022/11/07 02:43:41;;;;;;;21.38;10.63;;;;;;;2.73;68.33;100674.19;6095126;23;20131;-81
2022/11/07 02:46:10;;;;;;;20.88;10.50;;;;;;;2.60;68.53;100642.88;6046051;23;20023;-82
2022/11/07 02:48:45;;;;;;;20.80;10.32;;;;;;;2.66;68.38;100640.53;6065050;23;20071;-83
2022/11/07 02:51:12;;;;;;;22.25;10.55;;;;;;;2.76;68.08;100674.31;6086592;23;20401;-82
2022/11/07 02:53:39;;;;;;;20.60;10.68;;;;;;;2.83;68.44;100673.69;6088992;23;20015;-82
2022/11/07 02:56:08;;;;;;;21.38;10.50;;;;;;;1.91;67.87;100521.34;6065710;23;19998;-82
2022/11/07 02:58:35;;;;;;;21.05;10.40;;;;;;;2.47;68.41;100612.41;6062174;23;20109;-82
2022/11/07 03:01:07;;;;;;;22.02;10.80;;;;;;;2.54;68.53;100620.41;6030760;23;20110;-82
2022/11/07 03:03:45;;;;;;;23.52;10.80;;;;;;;2.62;68.52;100619.81;6048902;23;20029;-83
2022/11/07 03:06:25;;;;;;;23.88;10.60;;;;;;;2.90;68.54;100687.63;6053587;23;20425;-83
2022/11/07 03:09:04;;;;;;;21.08;10.40;;;;;;;1.60;68.28;100452.59;6027970;23;20523;-81
2022/11/07 03:15:17;;;;;;;20.02;9.73;;;;;;;2.01;68.30;100524.22;6010790;23;20026;-83
2022/11/07 03:17:47;;;;;;;17.27;9.48;;;;;;;2.05;68.88;100531.25;6019602;23;20026;-82
2022/11/07 03:20:21;;;;;;;21.52;9.80;;;;;;;2.02;68.66;100518.28;6020413;23;20023;-81
2022/11/07 03:22:56;;;;;;;22.08;10.18;;;;;;;1.73;68.45;100462.47;6029644;23;20023;-82
2022/11/07 03:25:30;;;;;;;19.45;9.68;;;;;;;2.04;68.43;100527.81;6021603;23;20487;-81
2022/11/07 03:27:56;;;;;;;20.98;10.00;;;;;;;1.99;68.34;100524.19;6043519;23;20019;-81
2022/11/07 03:30:31;;;;;;;19.70;9.93;;;;;;;2.19;68.70;100534.31;6045287;23;20420;-82
2022/11/07 03:33:17;;;;;;;18.02;9.30;;;;;;;1.70;68.51;100452.09;6019550;23;20021;-82
2022/11/07 03:35:44;;;;;;;18.83;10.00;;;;;;;1.89;68.98;100493.84;5996923;23;20023;-84
2022/11/07 03:38:10;;;;;;;20.38;9.85;;;;;;;1.72;68.86;100449.59;6019544;23;20382;-81
2022/11/07 03:40:39;;;;;;;20.52;9.20;;;;;;;2.38;68.55;100554.72;6020228;23;20019;-81
2022/11/07 03:43:05;;;;;;;17.85;9.45;;;;;;;2.67;68.61;100587.44;6043790;23;20102;-81
2022/11/07 03:45:31;;;;;;;18.30;8.90;;;;;;;2.51;69.17;100550.06;6020214;23;20072;-83
2022/11/07 03:47:58;;;;;;;18.70;9.07;;;;;;;2.64;68.66;100552.22;5996373;23;20066;-84
2022/11/07 03:50:24;;;;;;;17.80;9.15;;;;;;;2.76;69.20;100579.19;6020981;23;20361;-83
2022/11/07 03:52:50;;;;;;;17.35;8.75;;;;;;;2.62;68.81;100560.72;6044954;23;20361;-81
2022/11/07 03:55:20;;;;;;;19.92;9.77;;;;;;;2.69;68.85;100570.38;6070215;23;20022;-83
2022/11/07 03:57:52;;;;;;;20.65;9.65;;;;;;;2.99;69.04;100637.41;6044949;23;20015;-81
2022/11/07 04:00:18;;;;;;;16.40;8.85;;;;;;;3.07;69.12;100658.28;6027380;23;20019;-80
2022/11/07 04:02:53;;;;;;;18.00;9.27;;;;;;;2.32;68.72;100508.25;6057603;23;20472;-81
2022/11/07 04:05:25;;;;;;;17.98;8.95;;;;;;;2.29;68.68;100532.97;6037810;23;20102;-82
2022/11/07 04:07:53;;;;;;;18.35;8.90;;;;;;;1.96;69.10;100477.88;6066459;23;20046;-81
2022/11/07 04:10:23;;;;;;;16.13;9.10;;;;;;;2.89;68.97;100625.06;6056250;23;20423;-83
2022/11/07 04:18:17;;;;;;;16.98;8.13;;;;;;;2.92;69.16;100648.31;6046309;23;20098;-80
2022/11/07 04:20:43;;;;;;;16.80;8.48;;;;;;;2.96;68.79;100657.91;6069420;23;20026;-82
2022/11/07 04:23:10;;;;;;;15.82;8.45;;;;;;;2.68;69.00;100615.78;6019990;23;20018;-83
2022/11/07 04:28:21;;;;;;;16.73;8.18;;;;;;;2.69;69.12;100616.63;6020547;23;20362;-82
2022/11/07 04:30:49;;;;;;;15.68;8.30;;;;;;;2.87;69.41;100639.56;6026184;23;20025;-79
2022/11/07 04:33:15;;;;;;;17.85;8.25;;;;;;;2.62;69.27;100614.69;6092288;23;20046;-82
2022/11/07 04:35:41;;;;;;;17.10;7.97;;;;;;;2.65;69.35;100618.22;6057498;23;20034;-82
2022/11/07 04:38:09;;;;;;;17.40;8.63;;;;;;;2.67;68.82;100628.56;6080748;23;20063;-81
2022/11/07 04:40:35;;;;;;;15.68;7.35;;;;;;;2.55;69.25;100617.00;6031339;23;20102;-83
2022/11/07 04:43:07;;;;;;;17.65;8.88;;;;;;;2.62;69.16;100623.25;6050015;23;20018;-80
2022/11/07 04:45:50;;;;;;;17.20;8.73;;;;;;;2.60;69.34;100627.44;6026284;23;20026;-82
2022/11/07 04:48:16;;;;;;;20.17;8.40;;;;;;;2.31;69.04;100568.19;6078207;23;20018;-81
2022/11/07 04:50:44;;;;;;;14.45;7.43;;;;;;;2.20;69.00;100556.63;6061977;23;20010;-82
2022/11/07 04:53:17;;;;;;;16.67;7.50;;;;;;;2.32;69.41;100567.34;6019539;23;20035;-83
2022/11/07 04:55:43;;;;;;;16.35;7.93;;;;;;;2.35;69.45;100567.44;6029842;23;20078;-79
2022/11/07 04:58:10;;;;;;;16.70;9.05;;;;;;;2.66;69.24;100609.69;6009638;23;20019;-82
2022/11/07 05:00:36;;;;;;;13.30;7.85;;;;;;;2.70;69.01;100618.38;6045622;23;20417;-84
2022/11/07 05:03:04;;;;;;;13.98;7.38;;;;;;;2.94;69.63;100685.25;6044304;23;20078;-83
2022/11/07 05:05:30;;;;;;;15.43;7.65;;;;;;;2.40;69.23;100565.94;6044700;23;20018;-84
2022/11/07 05:07:56;;;;;;;14.18;7.45;;;;;;;2.68;69.35;100613.19;6021582;23;20029;-85
2022/11/07 05:10:25;;;;;;;17.17;7.18;;;;;;;2.88;69.52;100637.84;6071339;23;20473;-83
2022/11/07 05:12:52;;;;;;;13.98;7.15;;;;;;;2.82;69.44;100621.41;6068932;23;20060;-83
2022/11/07 05:15:18;;;;;;;14.48;7.20;;;;;;;3.03;69.78;100648.72;6047730;23;20032;-82
2022/11/07 05:17:45;;;;;;;16.70;8.15;;;;;;;3.01;69.02;100658.06;6021066;23;20105;-84
2022/11/07 05:20:30;;;;;;;13.15;7.03;;;;;;;2.96;69.59;100647.63;6070333;23;20022;-84
2022/11/07 05:23:13;;;;;;;13.23;7.03;;;;;;;2.77;69.60;100620.38;6092048;23;20023;-83
2022/11/07 05:25:49;;;;;;;15.45;7.40;;;;;;;2.79;69.03;100617.84;6070118;23;20034;-81
2022/11/07 05:28:27;;;;;;;13.73;7.07;;;;;;;3.00;69.80;100649.44;6047706;23;20022;-81
2022/11/07 05:30:53;;;;;;;13.85;7.80;;;;;;;2.94;69.42;100645.78;6070616;23;20031;-81
2022/11/07 05:33:19;;;;;;;16.40;7.53;;;;;;;2.74;69.29;100617.69;6018218;23;20033;-80
2022/11/07 05:35:45;;;;;;;14.13;7.38;;;;;;;2.94;69.16;100649.25;6046863;23;20010;-83
2022/11/07 05:38:12;;;;;;;15.23;7.15;;;;;;;2.84;70.00;100632.63;6065947;23;20019;-84
2022/11/07 05:40:39;;;;;;;16.48;7.35;;;;;;;2.97;69.25;100649.38;6085287;23;20421;-82
2022/11/07 05:43:12;;;;;;;13.05;6.80;;;;;;;2.65;69.86;100584.81;6047475;23;20010;-82
2022/11/07 05:45:39;;;;;;;13.07;6.85;;;;;;;2.40;69.73;100540.25;6048232;23;20018;-83
2022/11/07 05:48:08;;;;;;;11.85;6.80;;;;;;;2.31;69.50;100510.78;6095059;23;20023;-80
2022/11/07 05:50:35;;;;;;;16.55;7.60;;;;;;;3.15;70.13;100645.69;6048711;23;20022;-84
2022/11/07 05:53:01;;;;;;;13.05;7.32;;;;;;;3.07;69.41;100618.81;6048393;23;20026;-83
2022/11/07 05:55:28;;;;;;;13.68;7.28;;;;;;;3.01;69.86;100610.06;6095922;23;20068;-82
2022/11/07 05:57:54;;;;;;;14.68;7.75;;;;;;;2.91;69.56;100582.28;6046424;23;20030;-81
2022/11/07 06:00:21;;;;;;;12.25;6.90;;;;;;;3.30;69.52;100635.06;6071367;23;20065;-81
2022/11/07 06:03:00;;;;;;;12.60;6.88;;;;;;;3.11;69.44;100606.09;6094725;23;20055;-81
2022/11/07 06:05:27;;;;;;;12.75;6.80;;;;;;;3.42;69.50;100660.34;6069585;23;20101;-82
2022/11/07 06:07:54;;;;;;;14.75;6.72;;;;;;;3.10;69.31;100594.06;6095292;23;20018;-83
2022/11/07 06:10:27;;;;;;;12.65;7.03;;;;;;;3.42;69.71;100647.47;6046336;23;20094;-82
2022/11/07 06:12:59;;;;;;;13.07;6.72;;;;;;;3.42;69.22;100653.47;6071037;23;20023;-82
2022/11/07 06:15:30;;;;;;;13.65;7.18;;;;;;;3.23;69.51;100621.09;6047805;23;20023;-82
2022/11/07 06:18:01;;;;;;;13.38;6.47;;;;;;;3.28;69.12;100647.84;6064463;23;20459;-79
2022/11/07 06:20:28;;;;;;;13.20;7.47;;;;;;;3.09;68.89;100617.19;6055297;23;20046;-83
2022/11/07 06:23:02;;;;;;;12.63;6.70;;;;;;;3.26;69.51;100653.78;6008146;23;20246;-83
2022/11/07 06:25:28;;;;;;;15.23;6.97;;;;;;;3.07;69.46;100608.53;6031735;23;20019;-83
2022/11/07 06:28:03;;;;;;;13.63;7.05;;;;;;;3.13;70.01;100607.03;6052258;23;20102;-82
2022/11/07 06:30:32;;;;;;;12.85;6.93;;;;;;;3.46;69.54;100657.91;6028642;23;20023;-83
2022/11/07 06:33:09;;;;;;;14.95;7.13;;;;;;;3.42;69.46;100629.47;6031369;23;20026;-82
2022/11/07 06:35:39;;;;;;;15.40;7.43;;;;;;;3.30;69.22;100611.91;6081543;23;20045;-82
2022/11/07 06:38:11;;;;;;;14.90;6.80;;;;;;;2.60;69.62;100518.66;6054855;23;20025;-80
2022/11/07 06:40:41;;;;;;;14.65;6.97;;;;;;;2.47;69.14;100486.53;6050824;23;20015;-81
2022/11/07 06:43:16;;;;;;;14.57;7.32;;;;;;;3.58;69.07;100664.28;6054184;23;20074;-82
2022/11/07 06:45:44;;;;;;;15.88;7.40;;;;;;;3.08;69.00;100587.13;6050806;23;20019;-79
2022/11/07 06:48:11;;;;;;;16.15;8.60;;;;;;;3.45;68.93;100643.28;6027675;23;20022;-84
2022/11/07 06:50:44;;;;;;;17.90;8.93;;;;;;;3.35;69.55;100641.22;6047570;23;20026;-83
2022/11/07 06:53:12;;;;;;;20.73;10.10;;;;;;;3.53;69.22;100656.41;6047744;23;20015;-83
2022/11/07 06:55:40;;;;;;;16.95;9.35;;;;;;;2.35;68.89;100469.84;6080783;23;20090;-82
2022/11/07 06:58:19;;;;;;;16.15;8.90;;;;;;;3.09;69.68;100571.75;6058460;23;20026;-83
2022/11/07 07:01:15;;;;;;;16.88;9.15;;;;;;;3.09;69.33;100550.31;6051478;23;20205;-81
2022/11/07 07:04:18;;;;;;;17.52;8.57;;;;;;;3.54;69.14;100645.28;6055485;23;20038;-85
2022/11/07 07:06:44;;;;;;;15.70;8.55;;;;;;;2.96;68.48;100516.47;6033458;23;20022;-84
2022/11/07 07:09:11;;;;;;;15.90;8.35;;;;;;;2.81;68.51;100500.53;6052803;23;20034;-81
2022/11/07 07:11:37;;;;;;;14.63;7.95;;;;;;;3.29;68.99;100561.28;6021355;23;20023;-81
2022/11/07 07:14:04;;;;;;;13.55;7.55;;;;;;;3.35;68.67;100563.16;6021705;23;20019;-84
2022/11/07 07:16:31;;;;;;;14.82;7.45;;;;;;;3.50;68.75;100589.38;5999211;23;20075;-83
2022/11/07 07:18:57;;;;;;;15.48;7.43;;;;;;;3.58;68.71;100595.66;6048515;23;20034;-82
2022/11/07 07:21:23;;;;;;;14.20;7.47;;;;;;;3.66;69.00;100606.22;6026891;23;20023;-83
2022/11/07 07:23:49;;;;;;;12.43;7.03;;;;;;;3.28;69.02;100544.94;5980474;23;20019;-84
2022/11/07 07:26:16;;;;;;;14.32;7.70;;;;;;;3.88;68.41;100632.63;6050921;23;20090;-86
2022/11/07 07:28:55;;;;;;;15.05;7.18;;;;;;;3.22;69.29;100515.59;6022329;23;20023;-84
2022/11/07 07:31:25;;;;;;;12.55;7.18;;;;;;;2.76;68.35;100446.38;5997813;23;20019;-84
2022/11/07 07:33:51;;;;;;;13.95;7.68;;;;;;;3.44;68.99;100535.16;6044642;23;20015;-84
2022/11/07 07:36:19;;;;;;;16.67;7.65;;;;;;;3.09;68.81;100484.31;6055096;23;20046;-83
2022/11/07 07:38:46;;;;;;;12.93;7.00;;;;;;;3.19;68.39;100498.38;6010982;23;20028;-82
2022/11/07 07:41:21;;;;;;;13.25;6.93;;;;;;;3.15;68.25;100499.09;5992475;23;20079;-83
2022/11/07 07:43:55;;;;;;;11.52;6.50;;;;;;;3.24;68.21;100509.66;6040221;23;20027;-84
2022/11/07 07:46:22;;;;;;;12.60;7.03;;;;;;;2.91;68.69;100443.47;6022197;23;20019;-84
2022/11/07 07:49:24;;;;;;;14.40;7.68;;;;;;;4.14;68.72;100643.75;6020543;23;20019;-87
2022/11/07 07:52:24;;;;;;;16.08;6.93;;;;;;;3.43;68.70;100523.09;5998898;23;20102;-83
2022/11/07 07:54:58;;;;;;;13.90;6.40;;;;;;;4.17;68.45;100664.47;6046790;23;20011;-84
2022/11/07 07:58:24;;;;;;;15.38;7.50;;;;;;;4.21;68.55;100640.53;6024750;23;20055;-85
2022/11/07 08:01:02;;;;;;;14.45;6.82;;;;;;;4.25;68.66;100654.38;5967658;23;20015;-84
2022/11/07 08:03:31;;;;;;;14.05;7.85;;;;;;;4.37;68.67;100665.09;5980882;23;20031;-85
2022/11/07 08:05:58;;;;;;;13.63;7.35;;;;;;;4.02;68.37;100573.84;6032428;23;20026;-83
2022/11/07 08:08:32;;;;;;;14.52;7.28;;;;;;;4.47;67.80;100666.22;5987100;23;20047;-82
2022/11/07 08:11:08;;;;;;;13.52;7.57;;;;;;;4.42;67.85;100647.16;6004196;23;20431;-85
2022/11/07 08:13:57;;;;;;;;;;;;;;;4.32;68.01;100639.97;6047197;23;20094;-87
2022/11/07 08:16:50;;;;;;;14.20;6.85;;;;;;;4.16;67.51;100633.50;5990464;23;19925;-87
2022/11/07 08:19:19;;;;;;;;;;;;;;;4.30;67.77;100639.09;5998478;23;20083;-87
2022/11/07 08:21:45;;;;;;;12.88;6.65;;;;;;;3.48;67.88;100488.09;5998352;23;19924;-85
2022/11/07 08:24:13;;;;;;;12.70;6.85;;;;;;;3.11;67.60;100420.94;6024291;23;20046;-85
2022/11/07 08:26:40;;;;;;;17.30;7.32;;;;;;;3.85;67.75;100527.84;6000075;23;20473;-85
2022/11/07 08:29:06;;;;;;;12.23;6.45;;;;;;;4.26;67.66;100611.47;6024524;23;20113;-86
2022/11/07 08:31:32;;;;;;;14.60;7.88;;;;;;;3.60;68.06;100501.38;6025760;23;20023;-83
2022/11/07 08:33:59;;;;;;;16.38;7.70;;;;;;;3.84;67.55;100535.53;6002099;23;20461;-83
2022/11/07 08:36:26;;;;;;;15.77;6.85;;;;;;;4.42;67.95;100611.09;6025764;23;20023;-87
2022/11/07 08:38:53;;;;;;;15.95;7.75;;;;;;;3.98;67.87;100525.63;6051893;23;20469;-83
2022/11/07 08:41:20;;;;;;;14.98;7.80;;;;;;;3.99;67.79;100530.81;6051831;23;20465;-83
2022/11/07 08:43:48;;;;;;;16.30;8.13;;;;;;;4.33;67.91;100574.72;6052738;23;20019;-81
2022/11/07 08:46:14;;;;;;;15.35;7.80;;;;;;;4.34;67.71;100579.06;6013146;23;20023;-79
2022/11/07 08:48:40;;;;;;;14.35;7.85;;;;;;;4.70;68.03;100611.88;6034681;23;20473;-83
2022/11/07 08:51:08;;;;;;;13.88;7.22;;;;;;;4.82;67.48;100622.53;6028324;23;20019;-86
2022/11/07 08:53:34;;;;;;;14.63;7.55;;;;;;;4.46;67.09;100556.22;6048360;23;20015;-82
2022/11/07 08:56:08;;;;;;;14.00;7.28;;;;;;;4.78;67.13;100623.28;6048219;23;20030;-84
2022/11/07 08:58:35;;;;;;;12.52;7.20;;;;;;;4.81;67.20;100613.03;6045040;23;20023;-85
2022/11/07 09:01:05;;;;;;;16.35;7.00;;;;;;;4.43;67.30;100547.50;6026649;23;20537;-84
2022/11/07 09:03:35;;;;;;;14.63;7.45;;;;;;;4.68;67.25;100587.75;6050305;23;20023;-81
2022/11/07 09:06:01;;;;;;;14.60;6.82;;;;;;;4.32;67.34;100531.75;6002978;23;20500;-84
2022/11/07 09:08:27;;;;;;;12.02;6.60;;;;;;;4.77;67.09;100582.84;6023322;23;20019;-83
2022/11/07 09:10:53;;;;;;;11.80;6.18;;;;;;;4.81;67.07;100610.47;6029111;23;20062;-86
2022/11/07 09:13:20;;;;;;;13.43;6.93;;;;;;;4.73;66.79;100595.63;6021669;23;20039;-83
2022/11/07 09:15:46;;;;;;;11.43;6.60;;;;;;;4.39;67.18;100543.13;6043398;23;20023;-84
2022/11/07 09:18:12;;;;;;;13.60;6.88;;;;;;;4.35;66.81;100537.00;6040417;23;20139;-81
2022/11/07 09:20:38;;;;;;;13.45;6.18;;;;;;;4.67;67.23;100596.31;6048590;23;20087;-82
2022/11/07 09:23:04;;;;;;;14.55;6.63;;;;;;;4.62;67.31;100577.28;6049074;23;20487;-83
2022/11/07 09:25:30;;;;;;;12.02;7.10;;;;;;;4.24;66.79;100494.59;6041632;23;20079;-84
2022/11/07 09:28:01;;;;;;;13.20;7.47;;;;;;;4.72;67.08;100565.50;6023850;23;20026;-84
2022/11/07 09:30:31;;;;;;;14.55;6.82;;;;;;;4.39;66.90;100507.06;6048426;23;20019;-80
2022/11/07 09:33:00;;;;;;;14.15;7.30;;;;;;;4.73;67.66;100555.25;6022495;23;20042;-82
2022/11/07 09:35:26;;;;;;;15.05;6.88;;;;;;;4.65;66.75;100564.47;6046490;23;20019;-84
2022/11/07 09:37:56;;;;;;;14.20;7.30;;;;;;;4.95;66.76;100597.94;6048517;23;20015;-85
2022/11/07 09:40:32;;;;;;;15.80;7.07;;;;;;;4.93;66.67;100597.03;5998221;23;20361;-85
2022/11/07 09:43:20;;;;;;;13.50;6.75;;;;;;;4.97;66.17;100596.28;6020383;23;20019;-85
2022/11/07 09:46:33;;;;;;;;;;;;;;;;;;;;;
2022/11/07 09:50:27;;;;;;;13.32;7.18;;;;;;;4.88;66.78;100585.72;6049884;23;20026;-83
2022/11/07 09:54:03;;;;;;;;;;;;;;;;;;;;;
2022/11/07 09:57:02;;;;;;;12.18;7.05;;;;;;;4.15;66.56;100478.06;5956132;24;20019;-82
2022/11/07 09:59:32;;;;;;;14.80;7.43;;;;;;;4.91;66.99;100596.13;5955859;24;20017;-85
2022/11/07 10:02:00;;;;;;;13.77;7.13;;;;;;;3.92;66.26;100434.50;6017390;23;20023;-84
2022/11/07 10:04:45;;;;;;;15.05;7.75;;;;;;;4.03;66.29;100444.22;6018064;23;20023;-86
2022/11/07 10:07:39;;;;;;;16.63;7.32;;;;;;;3.45;66.23;100362.81;6015988;23;20027;-84
2022/11/07 10:11:00;;;;;;;13.93;6.63;;;;;;;4.48;66.53;100522.75;6038364;23;20019;-87
2022/11/07 10:13:47;;;;;;;14.50;7.38;;;;;;;4.91;66.69;100575.47;6021807;23;20079;-85
2022/11/07 10:16:42;;;;;;;15.95;7.72;;;;;;;3.80;66.67;100392.06;6041267;23;20023;-83
2022/11/07 10:19:20;;;;;;;15.35;7.95;;;;;;;4.98;66.83;100592.88;6043604;23;20023;-85
2022/11/07 10:22:24;;;;;;;13.52;7.10;;;;;;;4.86;66.12;100592.53;6017301;23;20030;-85
2022/11/07 10:24:53;;;;;;;15.52;7.43;;;;;;;4.81;66.65;100583.81;6016907;23;20484;-82
2022/11/07 10:27:22;;;;;;;13.23;7.15;;;;;;;4.72;66.27;100578.41;6025208;23;20086;-82
2022/11/07 10:29:52;;;;;;;13.18;7.15;;;;;;;3.97;66.59;100478.41;6045854;23;20469;-86
2022/11/07 10:32:34;;;;;;;14.55;8.10;;;;;;;4.67;66.59;100586.00;6048001;23;20023;-82
2022/11/07 10:35:23;;;;;;;17.48;9.13;;;;;;;4.67;66.98;100578.28;6052474;23;20015;-83
2022/11/07 10:37:59;;;;;;;16.17;8.30;;;;;;;3.40;66.38;100376.38;6051472;23;20044;-82
2022/11/07 10:40:32;;;;;;;16.88;7.95;;;;;;;4.57;67.15;100591.72;6015655;23;20023;-83
2022/11/07 10:43:00;;;;;;;15.48;7.70;;;;;;;3.74;67.46;100444.25;6041152;23;20006;-80
2022/11/07 10:45:28;;;;;;;14.23;7.80;;;;;;;4.46;67.02;100555.34;6064999;23;20018;-81
2022/11/07 10:48:03;;;;;;;13.85;7.90;;;;;;;4.65;66.88;100585.94;6035812;23;20014;-81
2022/11/07 10:50:37;;;;;;;17.25;8.30;;;;;;;4.64;67.28;100580.75;6031343;23;20083;-79
2022/11/07 10:53:08;;;;;;;15.77;8.30;;;;;;;4.55;66.54;100554.72;6030344;23;20023;-82
2022/11/07 10:55:44;;;;;;;17.23;8.95;;;;;;;4.45;66.74;100530.41;6006488;23;20026;-80
2022/11/07 10:58:25;;;;;;;16.15;8.10;;;;;;;4.55;66.73;100550.44;6046050;23;20034;-82
2022/11/07 11:00:58;;;;;;;16.55;8.68;;;;;;;4.79;66.81;100567.44;6000454;23;20473;-83
2022/11/07 11:03:28;;;;;;;16.80;8.65;;;;;;;4.84;67.15;100568.44;6056102;23;20019;-83
2022/11/07 11:05:57;;;;;;;19.08;8.93;;;;;;;4.26;66.96;100465.47;6004280;23;20025;-81
2022/11/07 11:08:30;;;;;;;22.50;10.60;;;;;;;4.92;66.74;100576.38;6006331;23;20019;-82
2022/11/07 11:11:20;;;;;;;18.65;8.65;;;;;;;4.85;66.37;100564.13;6036387;23;20053;-78
2022/11/07 11:14:04;;;;;;;19.42;9.13;;;;;;;4.57;66.54;100523.00;6103864;23;20030;-81
2022/11/07 11:16:35;;;;;;;19.70;9.60;;;;;;;4.81;67.13;100570.91;6082956;23;20054;-80
2022/11/07 11:19:04;;;;;;;20.77;9.65;;;;;;;4.80;66.87;100564.88;6085203;23;20051;-80
2022/11/07 11:21:45;;;;;;;15.55;8.45;;;;;;;4.76;66.53;100545.00;6101491;23;20018;-82
2022/11/07 11:24:44;;;;;;;19.23;9.27;;;;;;;4.39;66.23;100500.19;6054456;23;20022;-83
2022/11/07 11:27:21;;;;;;;20.85;9.48;;;;;;;4.65;66.60;100561.88;6078826;23;20018;-84
2022/11/07 11:29:59;;;;;;;19.25;9.00;;;;;;;4.38;66.75;100506.16;6076477;23;20022;-81
2022/11/07 11:33:02;;;;;;;19.90;9.30;;;;;;;4.01;67.03;100444.16;6100549;23;20029;-80
2022/11/07 11:35:41;;;;;;;17.80;8.90;;;;;;;4.73;65.88;100564.66;6055759;23;20019;-83
2022/11/07 11:38:22;;;;;;;19.55;9.40;;;;;;;4.12;67.38;100477.97;6085834;23;20038;-83
2022/11/07 11:41:06;;;;;;;18.35;9.52;;;;;;;4.47;67.16;100547.66;6064373;23;20014;-80
2022/11/07 11:43:54;;;;;;;20.60;10.10;;;;;;;4.48;67.53;100562.31;6074946;23;20023;-82
2022/11/07 11:46:35;;;;;;;27.55;10.63;;;;;;;4.43;67.53;100562.97;6031337;23;20019;-86
2022/11/07 11:49:31;;;;;;;19.77;9.65;;;;;;;4.47;67.03;100578.59;6050273;23;20050;-83
2022/11/07 11:52:05;;;;;;;24.40;10.30;;;;;;;4.38;67.49;100580.91;6048185;23;20023;-83
2022/11/07 11:54:32;;;;;;;22.75;10.93;;;;;;;4.35;66.48;100571.38;6070024;23;20030;-85
2022/11/07 11:57:07;;;;;;;24.17;11.40;;;;;;;4.31;66.95;100569.53;6045627;23;20110;-86
2022/11/07 11:59:42;;;;;;;22.67;10.43;;;;;;;4.31;67.49;100576.38;6046479;23;20503;-81
2022/11/07 12:02:20;;;;;;;25.75;12.00;;;;;;;4.29;67.24;100567.75;6074867;23;20018;-82
2022/11/07 12:04:46;;;;;;;21.30;10.90;;;;;;;4.26;66.97;100572.81;6068929;23;20382;-83
2022/11/07 12:07:46;;;;;;;23.73;10.38;;;;;;;4.22;67.73;100561.53;6072137;23;20102;-84